Time;durP1;ratioP1;P1;durP2;ratioP2;P2;SDS_P1;SDS_P2;PMS_P1;PMS_P2;Temp;Humidity;BMP_temperature;BMP_pressure;BME280_temperature;BME280_humidity;BME280_pressure;Samples;Min_cycle;Max_cycle;Signal;HPM_P1;HPM_P2
2023/03/17 00:00:56;;;;;;;1.57;1.23;;;;;;;;;;4954938;28;20276;-89
2023/03/17 00:03:24;;;;;;;2.00;1.30;;;;;;;;;;4954290;28;20229;-88
2023/03/17 00:05:52;;;;;;;1.40;1.30;;;;;;;;;;4951512;28;20245;-87
2023/03/17 00:08:23;;;;;;;1.90;1.00;;;;;;;;;;4952386;28;20284;-88
2023/03/17 00:10:49;;;;;;;1.77;1.10;;;;;;;;;;4951631;28;20213;-87
2023/03/17 00:13:15;;;;;;;2.03;1.10;;;;;;;;;;4949734;28;20352;-87
2023/03/17 00:15:40;;;;;;;1.80;1.37;;;;;;;;;;4955003;28;20631;-89
2023/03/17 00:18:12;;;;;;;2.03;1.30;;;;;;;;;;4964450;28;20292;-85
2023/03/17 00:20:38;;;;;;;2.90;1.30;;;;;;;;;;4962301;28;20236;-87
2023/03/17 00:23:10;;;;;;;1.40;1.30;;;;;;;;;;4965231;28;20239;-87
2023/03/17 00:25:41;;;;;;;1.37;1.10;;;;;;;;;;4969707;28;20225;-88
2023/03/17 00:28:19;;;;;;;1.20;1.10;;;;;;;;;;4966765;28;20237;-88
2023/03/17 00:30:47;;;;;;;2.23;1.50;;;;;;;;;;4956208;28;20252;-87
2023/03/17 00:33:14;;;;;;;1.33;1.23;;;;;;;;;;4960378;28;20600;-88
2023/03/17 00:35:41;;;;;;;1.43;1.33;;;;;;;;;;4965563;28;20233;-87
2023/03/17 00:38:15;;;;;;;1.30;1.20;;;;;;;;;;4946584;28;20225;-88
2023/03/17 00:40:41;;;;;;;1.30;1.20;;;;;;;;;;4953988;28;20229;-88
2023/03/17 00:43:09;;;;;;;1.27;1.10;;;;;;;;;;4949073;28;20902;-87
2023/03/17 00:45:35;;;;;;;1.10;1.00;;;;;;;;;;4947657;28;20233;-89
2023/03/17 00:48:04;;;;;;;2.10;1.20;;;;;;;;;;4953067;28;20222;-88
2023/03/17 00:50:29;;;;;;;1.37;1.17;;;;;;;;;;4953273;28;20222;-88
2023/03/17 00:52:56;;;;;;;1.50;1.40;;;;;;;;;;4951709;28;20233;-87
2023/03/17 00:55:26;;;;;;;1.20;1.07;;;;;;;;;;4936494;28;20317;-87
2023/03/17 00:57:55;;;;;;;1.77;1.40;;;;;;;;;;4955622;28;20272;-87
2023/03/17 01:00:28;;;;;;;1.33;1.10;;;;;;;;;;4964556;28;20225;-88
2023/03/17 01:02:56;;;;;;;1.80;1.30;;;;;;;;;;4960417;28;20908;-87
2023/03/17 01:05:25;;;;;;;1.40;1.30;;;;;;;;;;4960025;28;20217;-89
2023/03/17 01:07:54;;;;;;;1.40;1.20;;;;;;;;;;4957024;28;20717;-87
2023/03/17 01:10:22;;;;;;;1.10;0.97;;;;;;;;;;4968534;28;20228;-88
2023/03/17 01:12:49;;;;;;;1.30;1.20;;;;;;;;;;4974797;28;20248;-88
2023/03/17 01:15:16;;;;;;;1.83;1.40;;;;;;;;;;4958783;28;20245;-87
2023/03/17 01:17:44;;;;;;;2.17;1.40;;;;;;;;;;4957179;28;20228;-87
2023/03/17 01:20:15;;;;;;;1.03;1.03;;;;;;;;;;4956082;28;20222;-87
2023/03/17 01:22:41;;;;;;;1.60;1.30;;;;;;;;;;4963791;28;20597;-86
2023/03/17 01:25:09;;;;;;;2.57;1.10;;;;;;;;;;4965818;28;20237;-87
2023/03/17 01:27:37;;;;;;;1.27;1.17;;;;;;;;;;4951579;28;20229;-85
2023/03/17 01:30:08;;;;;;;1.40;1.30;;;;;;;;;;4968856;28;20233;-87
2023/03/17 01:32:33;;;;;;;1.17;1.17;;;;;;;;;;4953749;28;20721;-85
2023/03/17 01:35:00;;;;;;;1.43;1.33;;;;;;;;;;4959783;28;20226;-86
2023/03/17 01:37:25;;;;;;;1.50;1.40;;;;;;;;;;4966581;28;20681;-88
2023/03/17 01:39:52;;;;;;;1.37;1.27;;;;;;;;;;4955551;28;20218;-89
2023/03/17 01:42:18;;;;;;;3.20;1.23;;;;;;;;;;4963681;28;20313;-88
2023/03/17 01:45:00;;;;;;;1.80;1.30;;;;;;;;;;4974842;28;20224;-88
2023/03/17 01:47:29;;;;;;;1.43;1.23;;;;;;;;;;4945180;28;20260;-87
2023/03/17 01:49:55;;;;;;;3.47;1.43;;;;;;;;;;4961496;28;20246;-87
2023/03/17 01:52:21;;;;;;;1.63;1.40;;;;;;;;;;4968704;28;20221;-87
2023/03/17 01:54:50;;;;;;;1.60;1.50;;;;;;;;;;4936229;28;20217;-87
2023/03/17 01:57:28;;;;;;;2.10;1.40;;;;;;;;;;4940725;28;20240;-89
2023/03/17 01:59:57;;;;;;;3.87;1.63;;;;;;;;;;4960613;28;20221;-87
2023/03/17 02:02:25;;;;;;;1.60;1.50;;;;;;;;;;4969862;28;22534;-90
2023/03/17 02:04:56;;;;;;;1.40;1.30;;;;;;;;;;4960187;28;20308;-87
2023/03/17 02:07:25;;;;;;;1.77;1.57;;;;;;;;;;4938232;28;20229;-85
2023/03/17 02:09:52;;;;;;;1.50;1.40;;;;;;;;;;4941234;28;20233;-86
2023/03/17 02:12:20;;;;;;;1.80;1.60;;;;;;;;;;4927042;28;20210;-88
2023/03/17 02:14:48;;;;;;;1.67;1.40;;;;;;;;;;4957869;28;20222;-88
2023/03/17 02:17:13;;;;;;;2.97;1.73;;;;;;;;;;4946022;28;20251;-84
2023/03/17 02:19:41;;;;;;;2.03;1.50;;;;;;;;;;4927834;28;20315;-85
2023/03/17 02:22:07;;;;;;;1.63;1.53;;;;;;;;;;4953552;28;20229;-87
2023/03/17 02:24:56;;;;;;;2.37;1.70;;;;;;;;;;4955502;28;20244;-89
2023/03/17 02:27:41;;;;;;;1.53;1.40;;;;;;;;;;4971193;28;20222;-88
2023/03/17 02:30:10;;;;;;;1.70;1.60;;;;;;;;;;4940365;28;20670;-87
2023/03/17 02:32:40;;;;;;;1.63;1.53;;;;;;;;;;4929800;28;20240;-88
2023/03/17 02:35:08;;;;;;;3.07;2.00;;;;;;;;;;4955458;28;20244;-87
2023/03/17 02:37:42;;;;;;;1.70;1.60;;;;;;;;;;4936232;28;20217;-87
2023/03/17 02:40:10;;;;;;;1.63;1.50;;;;;;;;;;4951972;28;20210;-87
2023/03/17 02:42:38;;;;;;;1.70;1.60;;;;;;;;;;4950349;28;20295;-87
2023/03/17 02:45:05;;;;;;;1.63;1.53;;;;;;;;;;4950227;28;20236;-87
2023/03/17 02:47:31;;;;;;;1.67;1.50;;;;;;;;;;4958306;28;20225;-85
2023/03/17 02:50:01;;;;;;;2.17;1.90;;;;;;;;;;4944858;28;20809;-89
2023/03/17 02:52:26;;;;;;;2.60;1.70;;;;;;;;;;4959095;28;20230;-87
2023/03/17 02:54:56;;;;;;;2.23;1.80;;;;;;;;;;4941793;28;20221;-87
2023/03/17 02:57:22;;;;;;;2.00;1.80;;;;;;;;;;4936497;28;20634;-87
2023/03/17 02:59:52;;;;;;;1.77;1.57;;;;;;;;;;4955330;28;20225;-87
2023/03/17 03:02:18;;;;;;;2.10;1.90;;;;;;;;;;4957126;28;20690;-87
2023/03/17 03:04:46;;;;;;;2.10;1.90;;;;;;;;;;4961418;28;20228;-85
2023/03/17 03:07:12;;;;;;;1.63;1.53;;;;;;;;;;4950104;28;20279;-86
2023/03/17 03:09:42;;;;;;;3.47;1.90;;;;;;;;;;4973259;28;20656;-87
2023/03/17 03:12:08;;;;;;;2.57;1.83;;;;;;;;;;4943596;28;20260;-86
2023/03/17 03:14:37;;;;;;;2.83;2.20;;;;;;;;;;4961052;28;20702;-86
2023/03/17 03:17:03;;;;;;;2.97;2.00;;;;;;;;;;4973167;28;20225;-84
2023/03/17 03:19:31;;;;;;;2.13;1.73;;;;;;;;;;4970809;28;20230;-86
2023/03/17 03:21:56;;;;;;;2.40;1.60;;;;;;;;;;4934709;28;20309;-85
2023/03/17 03:24:22;;;;;;;2.27;2.00;;;;;;;;;;4953580;28;23059;-87
2023/03/17 03:26:47;;;;;;;1.63;1.53;;;;;;;;;;4950949;28;20232;-86
2023/03/17 03:29:13;;;;;;;2.73;1.97;;;;;;;;;;4952021;28;20244;-86
2023/03/17 03:31:41;;;;;;;1.97;1.80;;;;;;;;;;4968166;28;20691;-87
2023/03/17 03:34:06;;;;;;;2.23;2.03;;;;;;;;;;4934976;28;20385;-89
2023/03/17 03:36:34;;;;;;;2.97;1.70;;;;;;;;;;4959792;28;20713;-88
2023/03/17 03:39:00;;;;;;;2.00;1.90;;;;;;;;;;4954504;28;20285;-87
2023/03/17 03:41:26;;;;;;;2.30;2.20;;;;;;;;;;4951396;28;20244;-88
2023/03/17 03:43:54;;;;;;;2.30;1.93;;;;;;;;;;4939037;28;20619;-86
2023/03/17 03:46:22;;;;;;;2.50;2.30;;;;;;;;;;4951551;28;20571;-87
2023/03/17 03:48:48;;;;;;;3.17;2.10;;;;;;;;;;4956670;28;20252;-87
2023/03/17 03:51:15;;;;;;;3.17;2.33;;;;;;;;;;4964340;28;20222;-86
2023/03/17 03:53:44;;;;;;;2.33;2.17;;;;;;;;;;4970777;28;20222;-87
2023/03/17 03:56:11;;;;;;;2.10;1.90;;;;;;;;;;4949134;28;20232;-89
2023/03/17 03:58:37;;;;;;;3.63;2.30;;;;;;;;;;4948849;28;20297;-87
2023/03/17 04:01:06;;;;;;;2.10;1.83;;;;;;;;;;4960687;28;20299;-86
2023/03/17 04:03:33;;;;;;;2.13;1.93;;;;;;;;;;4954007;28;20253;-87
2023/03/17 04:05:59;;;;;;;2.70;2.07;;;;;;;;;;4967367;28;20686;-86
2023/03/17 04:08:27;;;;;;;3.30;2.00;;;;;;;;;;4945003;28;20215;-87
2023/03/17 04:10:55;;;;;;;2.27;2.07;;;;;;;;;;4940836;28;20833;-87
2023/03/17 04:13:23;;;;;;;2.10;1.90;;;;;;;;;;4938468;28;20228;-88
2023/03/17 04:15:53;;;;;;;2.27;2.03;;;;;;;;;;4955910;28;20218;-87
2023/03/17 04:18:22;;;;;;;2.07;1.90;;;;;;;;;;4947562;28;20226;-89
2023/03/17 04:20:48;;;;;;;2.30;2.10;;;;;;;;;;4955928;28;20225;-88
2023/03/17 04:23:16;;;;;;;2.43;2.23;;;;;;;;;;4962860;28;20224;-84
2023/03/17 04:25:46;;;;;;;6.53;4.80;;;;;;;;;;4980878;28;20205;-86
2023/03/17 04:28:16;;;;;;;2.73;2.20;;;;;;;;;;4963993;28;20288;-86
2023/03/17 04:30:41;;;;;;;26.87;19.33;;;;;;;;;;4922663;28;20234;-86
2023/03/17 04:33:07;;;;;;;9.53;6.70;;;;;;;;;;4950426;28;20649;-86
2023/03/17 04:35:33;;;;;;;15.63;11.17;;;;;;;;;;4945575;28;20582;-86
2023/03/17 04:38:01;;;;;;;24.47;17.33;;;;;;;;;;4958992;28;20240;-85
2023/03/17 04:40:27;;;;;;;37.90;23.20;;;;;;;;;;4950246;28;20253;-87
2023/03/17 04:43:09;;;;;;;9.03;6.23;;;;;;;;;;4954631;28;20227;-87
2023/03/17 04:45:37;;;;;;;112.67;69.30;;;;;;;;;;4959771;28;20221;-86
2023/03/17 04:48:03;;;;;;;31.63;18.87;;;;;;;;;;4921724;28;20248;-87
2023/03/17 04:50:29;;;;;;;28.47;16.73;;;;;;;;;;4923870;28;20265;-84
2023/03/17 04:52:59;;;;;;;22.63;15.73;;;;;;;;;;4969614;28;20225;-86
2023/03/17 04:55:27;;;;;;;13.13;9.10;;;;;;;;;;4942179;28;20217;-87
2023/03/17 04:57:55;;;;;;;4.33;3.20;;;;;;;;;;4948689;28;20270;-85
2023/03/17 05:00:24;;;;;;;19.83;17.83;;;;;;;;;;4972077;28;20236;-85
2023/03/17 05:02:51;;;;;;;3.23;2.90;;;;;;;;;;4960515;28;20296;-86
2023/03/17 05:05:17;;;;;;;3.60;3.30;;;;;;;;;;4943681;28;20233;-85
2023/03/17 05:07:45;;;;;;;2.93;2.73;;;;;;;;;;4951132;28;20229;-85
2023/03/17 05:10:11;;;;;;;2.57;2.37;;;;;;;;;;4969129;28;20241;-87
2023/03/17 05:12:36;;;;;;;2.73;2.43;;;;;;;;;;4956632;28;20225;-86
2023/03/17 05:15:04;;;;;;;4.97;4.57;;;;;;;;;;4938406;28;20232;-84
2023/03/17 05:17:29;;;;;;;2.97;2.67;;;;;;;;;;4926303;28;20221;-85
2023/03/17 05:19:55;;;;;;;3.23;2.30;;;;;;;;;;4968616;28;20761;-85
2023/03/17 05:22:21;;;;;;;2.33;2.10;;;;;;;;;;4971288;28;20284;-87
2023/03/17 05:24:46;;;;;;;2.50;2.30;;;;;;;;;;4959363;28;20217;-85
2023/03/17 05:27:15;;;;;;;2.20;2.00;;;;;;;;;;4951732;28;20222;-85
2023/03/17 05:29:41;;;;;;;2.53;2.20;;;;;;;;;;4970834;28;20367;-84
2023/03/17 05:32:06;;;;;;;2.17;1.90;;;;;;;;;;4956046;28;20321;-85
2023/03/17 05:34:32;;;;;;;2.23;2.00;;;;;;;;;;4935662;28;20242;-85
2023/03/17 05:37:00;;;;;;;3.33;2.30;;;;;;;;;;4974330;28;20222;-84
2023/03/17 05:39:25;;;;;;;2.27;2.10;;;;;;;;;;4953880;28;20277;-85
2023/03/17 05:41:51;;;;;;;2.30;1.80;;;;;;;;;;4960724;28;20443;-85
2023/03/17 05:44:20;;;;;;;2.83;2.17;;;;;;;;;;4956342;28;20226;-85
2023/03/17 05:46:48;;;;;;;2.87;2.20;;;;;;;;;;4950650;28;20579;-85
2023/03/17 05:49:17;;;;;;;2.53;2.40;;;;;;;;;;4973290;28;20219;-86
2023/03/17 05:51:45;;;;;;;3.77;2.17;;;;;;;;;;4967273;28;20220;-84
2023/03/17 05:54:17;;;;;;;2.10;2.00;;;;;;;;;;4964041;28;20690;-85
2023/03/17 05:56:43;;;;;;;2.43;2.23;;;;;;;;;;4935346;28;20513;-84
2023/03/17 05:59:14;;;;;;;2.40;2.20;;;;;;;;;;4963276;28;20225;-86
2023/03/17 06:01:40;;;;;;;2.30;2.10;;;;;;;;;;4961607;28;20924;-84
2023/03/17 06:04:08;;;;;;;2.40;2.20;;;;;;;;;;4951216;28;20252;-84
2023/03/17 06:06:35;;;;;;;3.43;2.60;;;;;;;;;;4981140;28;20222;-84
2023/03/17 06:09:01;;;;;;;3.10;2.50;;;;;;;;;;4945376;28;20439;-86
2023/03/17 06:11:27;;;;;;;3.07;2.70;;;;;;;;;;4952036;28;20210;-86
2023/03/17 06:13:55;;;;;;;2.87;2.43;;;;;;;;;;4955422;28;20228;-85
2023/03/17 06:16:23;;;;;;;2.57;2.37;;;;;;;;;;4957347;28;20241;-86
2023/03/17 06:18:51;;;;;;;2.40;2.20;;;;;;;;;;4970234;28;20238;-86
2023/03/17 06:21:16;;;;;;;2.60;2.23;;;;;;;;;;4938206;28;20961;-86
2023/03/17 06:23:42;;;;;;;2.60;2.40;;;;;;;;;;4944067;28;20229;-85
2023/03/17 06:26:13;;;;;;;4.37;2.70;;;;;;;;;;4942081;28;20238;-85
2023/03/17 06:28:39;;;;;;;3.53;2.27;;;;;;;;;;4938286;28;20214;-84
2023/03/17 06:31:04;;;;;;;3.07;2.37;;;;;;;;;;4972553;28;20202;-84
2023/03/17 06:33:30;;;;;;;4.33;2.33;;;;;;;;;;4988378;28;20349;-84
2023/03/17 06:35:58;;;;;;;2.87;2.30;;;;;;;;;;4977933;28;20202;-83
2023/03/17 06:38:24;;;;;;;2.90;2.30;;;;;;;;;;4993443;28;20213;-84
2023/03/17 06:40:50;;;;;;;3.10;2.17;;;;;;;;;;4979964;28;20233;-84
2023/03/17 06:43:18;;;;;;;3.50;2.70;;;;;;;;;;4986986;28;20286;-84
2023/03/17 06:45:45;;;;;;;3.27;2.77;;;;;;;;;;4979823;28;20198;-84
2023/03/17 06:48:11;;;;;;;2.10;2.00;;;;;;;;;;4949264;28;20206;-86
2023/03/17 06:50:37;;;;;;;3.00;2.30;;;;;;;;;;4965342;28;20264;-83
2023/03/17 06:53:06;;;;;;;2.87;2.50;;;;;;;;;;4988373;28;20213;-84
2023/03/17 06:55:32;;;;;;;2.53;2.33;;;;;;;;;;4962178;28;20201;-84
2023/03/17 06:57:59;;;;;;;2.73;2.50;;;;;;;;;;4947860;28;20211;-85
2023/03/17 07:00:24;;;;;;;2.37;2.17;;;;;;;;;;4974345;28;20254;-87
2023/03/17 07:02:50;;;;;;;2.27;2.10;;;;;;;;;;4993981;28;20482;-84
2023/03/17 07:05:16;;;;;;;2.50;2.30;;;;;;;;;;4965106;28;20221;-85
2023/03/17 07:07:42;;;;;;;2.73;2.30;;;;;;;;;;4979523;28;20209;-84
2023/03/17 07:10:14;;;;;;;4.23;2.50;;;;;;;;;;4963855;28;20247;-86
2023/03/17 07:12:42;;;;;;;3.77;2.43;;;;;;;;;;4960438;28;20226;-86
2023/03/17 07:15:12;;;;;;;2.00;1.80;;;;;;;;;;4947769;28;20276;-86
2023/03/17 07:17:40;;;;;;;2.40;2.20;;;;;;;;;;4971624;28;20221;-90
2023/03/17 07:20:06;;;;;;;2.57;2.37;;;;;;;;;;4966087;28;20238;-87
2023/03/17 07:22:34;;;;;;;2.47;2.27;;;;;;;;;;4947757;28;20236;-87
2023/03/17 07:25:00;;;;;;;4.77;3.00;;;;;;;;;;4963727;28;20233;-87
2023/03/17 07:27:30;;;;;;;3.50;2.40;;;;;;;;;;4947290;28;20239;-89
2023/03/17 07:29:56;;;;;;;3.67;2.53;;;;;;;;;;4928368;28;20221;-89
2023/03/17 07:32:24;;;;;;;2.47;2.33;;;;;;;;;;4960689;28;20209;-87
2023/03/17 07:34:49;;;;;;;2.50;2.30;;;;;;;;;;4934958;28;20245;-88
2023/03/17 07:37:18;;;;;;;3.03;2.40;;;;;;;;;;4969462;28;20225;-88
2023/03/17 07:39:47;;;;;;;2.73;2.47;;;;;;;;;;4970327;28;20225;-84
2023/03/17 07:42:14;;;;;;;2.57;2.37;;;;;;;;;;4955784;28;20687;-88
2023/03/17 07:44:40;;;;;;;2.40;2.20;;;;;;;;;;4955971;28;21148;-86
2023/03/17 07:47:09;;;;;;;3.33;2.60;;;;;;;;;;4948037;28;20577;-88
2023/03/17 07:49:40;;;;;;;5.33;2.50;;;;;;;;;;4958960;28;20228;-87
2023/03/17 07:52:07;;;;;;;2.70;2.50;;;;;;;;;;4941175;28;20252;-86
2023/03/17 07:54:35;;;;;;;2.73;2.53;;;;;;;;;;4940206;28;20232;-86
2023/03/17 07:57:05;;;;;;;2.80;2.50;;;;;;;;;;4959672;28;20612;-86
2023/03/17 07:59:34;;;;;;;2.47;2.27;;;;;;;;;;4942884;28;20233;-86
2023/03/17 08:02:02;;;;;;;2.80;2.50;;;;;;;;;;4958371;28;20250;-87
2023/03/17 08:04:30;;;;;;;2.90;2.60;;;;;;;;;;4946551;28;20637;-87
2023/03/17 08:06:56;;;;;;;3.20;2.43;;;;;;;;;;4943424;28;20243;-86
2023/03/17 08:09:22;;;;;;;2.43;2.23;;;;;;;;;;4969882;28;20228;-84
2023/03/17 08:11:47;;;;;;;4.57;2.73;;;;;;;;;;4953489;28;20234;-86
2023/03/17 08:14:15;;;;;;;2.83;2.53;;;;;;;;;;4964880;28;20586;-85
2023/03/17 08:16:41;;;;;;;3.20;2.70;;;;;;;;;;4969725;28;20232;-88
2023/03/17 08:19:09;;;;;;;4.47;2.87;;;;;;;;;;4967115;28;20233;-87
2023/03/17 08:21:39;;;;;;;5.27;2.70;;;;;;;;;;4981663;28;20226;-88
2023/03/17 08:24:05;;;;;;;2.63;2.43;;;;;;;;;;4956232;28;20241;-87
2023/03/17 08:26:31;;;;;;;3.20;2.90;;;;;;;;;;4971078;28;20220;-87
2023/03/17 08:29:00;;;;;;;3.20;2.67;;;;;;;;;;4974139;28;20214;-84
2023/03/17 08:31:28;;;;;;;2.70;2.37;;;;;;;;;;4944064;28;20296;-84
2023/03/17 08:33:55;;;;;;;2.50;2.30;;;;;;;;;;4967576;28;20232;-88
2023/03/17 08:36:22;;;;;;;2.67;2.47;;;;;;;;;;4935699;28;20640;-88
2023/03/17 08:38:48;;;;;;;4.60;2.70;;;;;;;;;;4955474;28;20221;-86
2023/03/17 08:41:19;;;;;;;2.67;2.40;;;;;;;;;;4955902;28;20229;-88
2023/03/17 08:43:45;;;;;;;2.50;2.30;;;;;;;;;;4981166;28;20590;-87
2023/03/17 08:46:21;;;;;;;2.53;2.33;;;;;;;;;;4943252;28;20301;-88
2023/03/17 08:48:49;;;;;;;2.43;2.30;;;;;;;;;;4965818;28;20228;-84
2023/03/17 08:51:15;;;;;;;2.80;2.60;;;;;;;;;;4938298;28;20222;-86
2023/03/17 08:53:41;;;;;;;3.37;2.80;;;;;;;;;;4951178;28;20249;-85
2023/03/17 08:56:08;;;;;;;2.80;2.30;;;;;;;;;;4974460;28;20213;-86
2023/03/17 08:58:35;;;;;;;2.60;2.40;;;;;;;;;;4982607;28;20222;-87
2023/03/17 09:01:01;;;;;;;2.40;2.20;;;;;;;;;;4958353;28;20249;-87
2023/03/17 09:03:27;;;;;;;2.70;2.50;;;;;;;;;;4959305;28;20227;-87
2023/03/17 09:05:53;;;;;;;2.60;2.30;;;;;;;;;;4956021;28;20285;-87
2023/03/17 09:08:23;;;;;;;2.70;2.50;;;;;;;;;;4961340;28;20690;-85
2023/03/17 09:10:52;;;;;;;3.73;2.37;;;;;;;;;;4970753;28;20214;-87
2023/03/17 09:13:17;;;;;;;5.17;2.40;;;;;;;;;;4917251;28;20222;-86
2023/03/17 09:15:44;;;;;;;2.90;2.20;;;;;;;;;;4966589;28;20230;-85
2023/03/17 09:18:13;;;;;;;2.60;2.40;;;;;;;;;;4958523;28;20225;-85
2023/03/17 09:20:39;;;;;;;2.63;2.07;;;;;;;;;;4980099;28;20218;-86
2023/03/17 09:23:06;;;;;;;2.20;2.00;;;;;;;;;;4977018;28;20226;-85
2023/03/17 09:25:38;;;;;;;2.50;2.20;;;;;;;;;;4979954;28;20225;-85
2023/03/17 09:28:04;;;;;;;1.77;1.67;;;;;;;;;;4976335;28;20226;-86
2023/03/17 09:30:34;;;;;;;2.20;2.00;;;;;;;;;;4939813;28;20234;-87
2023/03/17 09:33:02;;;;;;;2.23;2.13;;;;;;;;;;4959654;28;20225;-86
2023/03/17 09:35:32;;;;;;;3.63;2.30;;;;;;;;;;4959709;28;20217;-86
2023/03/17 09:38:00;;;;;;;2.53;2.20;;;;;;;;;;4971511;28;20248;-83
2023/03/17 09:40:47;;;;;;;3.13;2.30;;;;;;;;;;4949085;28;20218;-86
2023/03/17 09:43:15;;;;;;;2.33;2.13;;;;;;;;;;4984719;28;20233;-86
2023/03/17 09:45:43;;;;;;;2.33;2.10;;;;;;;;;;4988100;28;20295;-85
2023/03/17 09:48:38;;;;;;;2.97;2.10;;;;;;;;;;4953472;28;20279;-86
2023/03/17 09:51:06;;;;;;;3.53;2.67;;;;;;;;;;4958796;28;20694;-87
2023/03/17 09:54:14;;;;;;;2.03;1.90;;;;;;;;;;4970291;28;20234;-87
2023/03/17 09:56:42;;;;;;;2.30;2.10;;;;;;;;;;4908728;29;20241;-86
2023/03/17 09:59:29;;;;;;;2.40;2.20;;;;;;;;;;4940087;28;20253;-87
2023/03/17 10:01:54;;;;;;;2.27;2.07;;;;;;;;;;4971145;28;20592;-88
2023/03/17 10:04:22;;;;;;;2.57;2.03;;;;;;;;;;4961769;28;20222;-85
2023/03/17 10:06:50;;;;;;;2.22;1.90;;;;;;;;;;4958141;28;20222;-86
2023/03/17 10:09:41;;;;;;;2.50;2.27;;;;;;;;;;4956777;28;20221;-88
2023/03/17 10:12:37;;;;;;;3.47;2.10;;;;;;;;;;4969890;28;20272;-86
2023/03/17 10:15:22;;;;;;;18.55;5.82;;;;;;;;;;4975041;28;20225;-87
2023/03/17 10:17:50;;;;;;;2.60;2.00;;;;;;;;;;4958087;28;20213;-87
2023/03/17 10:20:20;;;;;;;4.32;1.73;;;;;;;;;;4964757;28;20272;-86
2023/03/17 10:22:48;;;;;;;2.20;1.95;;;;;;;;;;4946180;28;20229;-87
2023/03/17 10:25:40;;;;;;;2.28;2.08;;;;;;;;;;4957491;28;20757;-87
2023/03/17 10:28:10;;;;;;;1.80;1.70;;;;;;;;;;4970035;28;20231;-86
2023/03/17 10:30:35;;;;;;;1.92;1.73;;;;;;;;;;4966790;28;20230;-85
2023/03/17 10:33:02;;;;;;;1.90;1.80;;;;;;;;;;4941404;28;20694;-88
2023/03/17 10:35:28;;;;;;;1.92;1.50;;;;;;;;;;4962972;28;20228;-86
2023/03/17 10:37:54;;;;;;;2.38;1.80;;;;;;;;;;4941489;28;20999;-88
2023/03/17 10:40:23;;;;;;;1.50;1.40;;;;;;;;;;4943142;28;20229;-87
2023/03/17 10:42:55;;;;;;;2.83;1.40;;;;;;;;;;4944067;28;20233;-87
2023/03/17 10:45:29;;;;;;;2.10;1.48;;;;;;;;;;4950414;28;20229;-87
2023/03/17 10:47:56;;;;;;;1.80;1.42;;;;;;;;;;4935773;28;20733;-89
2023/03/17 10:50:40;;;;;;;1.60;1.35;;;;;;;;;;4967582;28;20230;-87
2023/03/17 10:53:10;;;;;;;1.50;1.40;;;;;;;;;;4957438;28;20218;-86
2023/03/17 10:55:36;;;;;;;1.55;1.30;;;;;;;;;;4955765;28;20246;-85
2023/03/17 10:58:05;;;;;;;2.00;1.30;;;;;;;;;;4957186;28;20253;-86
2023/03/17 11:00:34;;;;;;;1.88;1.60;;;;;;;;;;4963607;28;20226;-83
2023/03/17 11:03:11;;;;;;;1.92;1.50;;;;;;;;;;4942277;28;20257;-83
2023/03/17 11:05:37;;;;;;;1.48;1.38;;;;;;;;;;4950842;28;20229;-86
2023/03/17 11:08:14;;;;;;;1.38;1.27;;;;;;;;;;4955589;28;20318;-87
2023/03/17 11:10:40;;;;;;;1.70;1.60;;;;;;;;;;4962346;28;20244;-89
2023/03/17 11:13:09;;;;;;;1.65;1.40;;;;;;;;;;4942803;28;20233;-84
2023/03/17 11:15:42;;;;;;;1.65;1.55;;;;;;;;;;4945782;28;20218;-85
2023/03/17 11:18:34;;;;;;;2.00;1.50;;;;;;;;;;4975498;28;20552;-87
2023/03/17 11:21:17;;;;;;;1.60;1.38;;;;;;;;;;4962179;28;20217;-87
2023/03/17 11:24:08;;;;;;;1.45;1.35;;;;;;;;;;4972536;28;20356;-85
2023/03/17 11:26:49;;;;;;;2.00;1.42;;;;;;;;;;4960762;28;20315;-85
2023/03/17 11:29:36;;;;;;;1.50;1.40;;;;;;;;;;4986840;28;20858;-86
2023/03/17 11:32:39;;;;;;;1.50;1.40;;;;;;;;;;4971832;28;20703;-84
2023/03/17 11:35:42;;;;;;;1.10;1.00;;;;;;;;;;4963630;28;20233;-85
2023/03/17 11:38:19;;;;;;;1.50;1.33;;;;;;;;;;4959961;28;20239;-86
2023/03/17 11:41:07;;;;;;;1.23;1.13;;;;;;;;;;4993824;28;20217;-85
2023/03/17 11:44:07;;;;;;;1.75;1.40;;;;;;;;;;4966144;28;20326;-85
2023/03/17 11:46:39;;;;;;;3.42;1.60;;;;;;;;;;4980537;28;20221;-84
2023/03/17 11:49:19;;;;;;;1.83;1.40;;;;;;;;;;4959966;28;20686;-86
2023/03/17 11:52:28;;;;;;;2.00;1.48;;;;;;;;;;4940277;28;20295;-85
2023/03/17 11:54:57;;;;;;;1.83;1.38;;;;;;;;;;4957702;28;20201;-86
2023/03/17 11:57:34;;;;;;;1.70;1.35;;;;;;;;;;4964527;28;20237;-84
2023/03/17 12:00:05;;;;;;;1.50;1.40;;;;;;;;;;4972250;28;20733;-86
2023/03/17 12:02:42;;;;;;;2.53;1.65;;;;;;;;;;4952814;28;20249;-84
2023/03/17 12:05:16;;;;;;;1.55;1.10;;;;;;;;;;4956275;28;20275;-84
2023/03/17 12:07:57;;;;;;;1.33;1.23;;;;;;;;;;4943283;28;20216;-86
2023/03/17 12:10:33;;;;;;;2.95;1.50;;;;;;;;;;4959131;28;20229;-86
2023/03/17 12:13:12;;;;;;;2.15;1.88;;;;;;;;;;4958118;28;20408;-84
2023/03/17 12:15:57;;;;;;;1.58;1.48;;;;;;;;;;4954526;28;20260;-86
2023/03/17 12:18:38;;;;;;;1.50;1.40;;;;;;;;;;4969093;28;20224;-86
2023/03/17 12:21:36;;;;;;;1.77;1.27;;;;;;;;;;4986426;28;20213;-85
2023/03/17 12:24:17;;;;;;;1.52;1.17;;;;;;;;;;5024398;23;20227;-77
2023/03/17 12:26:49;;;;;;;2.00;1.52;;;;;;;;;;5072097;28;20671;-74
2023/03/17 12:29:36;;;;;;;1.30;1.20;;;;;;;;;;5059280;28;20659;-77
2023/03/17 12:32:08;;;;;;;1.83;1.08;;;;;;;;;;5058684;28;20214;-77
2023/03/17 12:34:37;;;;;;;1.20;1.10;;;;;;;;;;5039997;28;20374;-78
2023/03/17 12:37:03;;;;;;;1.52;1.38;;;;;;;;;;5056429;28;20223;-76
2023/03/17 12:39:32;;;;;;;1.50;1.40;;;;;;;;;;5072826;28;20227;-77
2023/03/17 12:42:36;;;;;;;1.30;1.20;;;;;;;;;;5044175;28;20253;-76
2023/03/17 12:45:34;;;;;;;1.92;1.15;;;;;;;;;;5018835;28;20231;-78
2023/03/17 12:48:27;;;;;;;1.55;1.20;;;;;;;;;;5051127;28;20218;-77
2023/03/17 12:51:25;;;;;;;1.27;1.20;;;;;;;;;;5074836;28;20561;-78
2023/03/17 12:53:55;;;;;;;1.42;1.33;;;;;;;;;;5062363;28;20230;-78
2023/03/17 12:56:28;;;;;;;1.33;1.23;;;;;;;;;;5074269;28;20226;-77
2023/03/17 12:59:10;;;;;;;1.50;1.20;;;;;;;;;;5046379;28;20223;-78
2023/03/17 13:01:44;;;;;;;1.35;1.20;;;;;;;;;;5048459;28;20227;-77
2023/03/17 13:04:34;;;;;;;1.08;1.00;;;;;;;;;;5056893;28;20218;-78
2023/03/17 13:07:03;;;;;;;2.53;1.40;;;;;;;;;;5078761;28;20214;-77
2023/03/17 13:09:31;;;;;;;1.42;1.33;;;;;;;;;;5050525;28;20797;-77
2023/03/17 13:12:05;;;;;;;1.73;1.40;;;;;;;;;;5073921;28;20215;-77
2023/03/17 13:14:46;;;;;;;1.80;1.30;;;;;;;;;;5058369;28;20248;-76
2023/03/17 13:17:15;;;;;;;1.67;1.58;;;;;;;;;;5073615;28;20225;-77
2023/03/17 13:19:56;;;;;;;1.92;1.25;;;;;;;;;;5078697;28;20241;-76
2023/03/17 13:22:23;;;;;;;3.05;1.20;;;;;;;;;;5091201;28;20282;-77
2023/03/17 13:24:50;;;;;;;1.38;1.17;;;;;;;;;;5084455;28;20664;-79
2023/03/17 13:27:31;;;;;;;1.60;1.17;;;;;;;;;;5084567;28;20809;-79
2023/03/17 13:29:57;;;;;;;1.38;1.13;;;;;;;;;;5065734;28;20300;-78
2023/03/17 13:32:26;;;;;;;1.30;1.20;;;;;;;;;;5042487;28;20504;-79
2023/03/17 13:35:14;;;;;;;1.30;1.10;;;;;;;;;;5081001;28;20218;-78
2023/03/17 13:38:08;;;;;;;1.20;1.10;;;;;;;;;;5074116;28;20687;-78
2023/03/17 13:40:57;;;;;;;1.63;1.23;;;;;;;;;;5034576;28;20414;-77
2023/03/17 13:43:39;;;;;;;1.77;1.25;;;;;;;;;;5076735;28;20283;-76
2023/03/17 13:46:17;;;;;;;2.83;1.10;;;;;;;;;;5045292;28;20734;-78
2023/03/17 13:48:43;;;;;;;2.28;1.40;;;;;;;;;;5095597;28;20289;-78
2023/03/17 13:51:11;;;;;;;1.38;1.27;;;;;;;;;;5050517;28;20648;-77
2023/03/17 13:53:51;;;;;;;1.55;1.38;;;;;;;;;;5076933;28;20685;-77
2023/03/17 13:56:41;;;;;;;4.10;1.10;;;;;;;;;;5075865;28;20218;-78
2023/03/17 13:59:14;;;;;;;1.50;1.40;;;;;;;;;;5083056;28;20255;-78
2023/03/17 14:01:59;;;;;;;2.13;1.45;;;;;;;;;;5081146;28;20229;-76
2023/03/17 14:04:37;;;;;;;3.25;1.40;;;;;;;;;;5079775;28;20839;-77
2023/03/17 14:07:08;;;;;;;1.63;1.30;;;;;;;;;;5051132;28;20433;-77
2023/03/17 14:09:38;;;;;;;3.30;1.20;;;;;;;;;;5065351;28;20297;-77
2023/03/17 14:12:14;;;;;;;1.33;1.20;;;;;;;;;;5066398;28;20210;-78
2023/03/17 14:14:45;;;;;;;1.75;1.30;;;;;;;;;;5071368;28;20215;-79
2023/03/17 14:17:13;;;;;;;1.40;1.30;;;;;;;;;;5094914;28;20339;-77
2023/03/17 14:19:40;;;;;;;1.42;1.33;;;;;;;;;;5086310;28;20224;-79
2023/03/17 14:22:24;;;;;;;2.10;1.13;;;;;;;;;;5073117;28;20241;-77
2023/03/17 14:24:51;;;;;;;2.10;1.35;;;;;;;;;;5074785;28;20225;-77
2023/03/17 14:27:20;;;;;;;2.63;1.38;;;;;;;;;;5077403;28;20865;-79
2023/03/17 14:29:48;;;;;;;2.72;1.20;;;;;;;;;;5081097;28;20218;-77
2023/03/17 14:32:15;;;;;;;1.80;1.52;;;;;;;;;;5062209;28;20230;-78
2023/03/17 14:34:47;;;;;;;2.28;1.30;;;;;;;;;;5044525;28;20290;-76
2023/03/17 14:37:13;;;;;;;1.33;1.15;;;;;;;;;;5083804;28;20227;-79
2023/03/17 14:39:51;;;;;;;2.78;1.30;;;;;;;;;;5074863;28;20237;-78
2023/03/17 14:42:24;;;;;;;1.30;1.20;;;;;;;;;;5072291;28;20237;-78
2023/03/17 14:44:49;;;;;;;4.13;1.50;;;;;;;;;;5032340;28;20699;-77
2023/03/17 14:47:22;;;;;;;1.50;1.40;;;;;;;;;;5046943;28;20703;-77
2023/03/17 14:49:49;;;;;;;1.67;1.38;;;;;;;;;;5072414;28;20631;-78
2023/03/17 14:52:19;;;;;;;1.83;1.20;;;;;;;;;;5067112;28;20236;-78
2023/03/17 14:54:55;;;;;;;1.50;1.40;;;;;;;;;;5035596;28;20213;-79
2023/03/17 14:57:28;;;;;;;1.33;1.17;;;;;;;;;;5060001;28;20218;-78
2023/03/17 14:59:56;;;;;;;1.50;1.40;;;;;;;;;;5080311;28;20222;-78
2023/03/17 15:02:27;;;;;;;1.50;1.40;;;;;;;;;;5078973;28;20318;-78
2023/03/17 15:05:13;;;;;;;1.30;1.15;;;;;;;;;;5080408;28;20214;-79